sensor_id;sensor_type;location;lat;lon;timestamp;pressure;altitude;pressure_sealevel;temperature;humidity
54554;BME280;40450;55.848;-3.572;2023-03-03T00:02:14;100995.58;;;6.09;86.41
54554;BME280;40450;55.848;-3.572;2023-03-03T00:04:44;100999.33;;;6.34;87.64
54554;BME280;40450;55.848;-3.572;2023-03-03T00:07:15;100997.52;;;7.02;85.00
54554;BME280;40450;55.848;-3.572;2023-03-03T00:09:45;100997.79;;;6.61;85.38
54554;BME280;40450;55.848;-3.572;2023-03-03T00:12:22;100995.40;;;6.52;84.66
54554;BME280;40450;55.848;-3.572;2023-03-03T00:14:46;100998.73;;;5.63;86.20
54554;BME280;40450;55.848;-3.572;2023-03-03T00:17:20;101003.88;;;4.38;88.06
54554;BME280;40450;55.848;-3.572;2023-03-03T00:19:47;101002.35;;;5.61;87.24
54554;BME280;40450;55.848;-3.572;2023-03-03T00:22:25;100996.55;;;6.83;84.48
54554;BME280;40450;55.848;-3.572;2023-03-03T00:24:48;100999.63;;;5.78;84.02
54554;BME280;40450;55.848;-3.572;2023-03-03T00:27:25;100998.86;;;5.69;85.75
54554;BME280;40450;55.848;-3.572;2023-03-03T00:29:49;100997.59;;;6.26;83.05
54554;BME280;40450;55.848;-3.572;2023-03-03T00:32:24;100996.32;;;7.54;83.10
54554;BME280;40450;55.848;-3.572;2023-03-03T00:34:50;101005.78;;;5.25;85.04
54554;BME280;40450;55.848;-3.572;2023-03-03T00:37:29;101009.80;;;5.49;85.83
54554;BME280;40450;55.848;-3.572;2023-03-03T00:39:50;101000.58;;;7.22;83.34
54554;BME280;40450;55.848;-3.572;2023-03-03T00:42:21;101008.81;;;5.19;85.06
54554;BME280;40450;55.848;-3.572;2023-03-03T00:44:55;101006.58;;;5.70;83.30
54554;BME280;40450;55.848;-3.572;2023-03-03T00:47:28;101009.46;;;4.75;86.21
54554;BME280;40450;55.848;-3.572;2023-03-03T00:49:53;101011.17;;;4.87;85.18
54554;BME280;40450;55.848;-3.572;2023-03-03T00:52:24;101009.96;;;4.56;86.42
54554;BME280;40450;55.848;-3.572;2023-03-03T00:54:52;101015.60;;;4.69;86.53
54554;BME280;40450;55.848;-3.572;2023-03-03T00:57:23;101013.81;;;6.14;83.11
54554;BME280;40450;55.848;-3.572;2023-03-03T00:59:53;101012.15;;;7.70;83.34
54554;BME280;40450;55.848;-3.572;2023-03-03T01:02:23;101013.08;;;6.52;82.49
54554;BME280;40450;55.848;-3.572;2023-03-03T01:04:54;101012.23;;;6.82;81.71
54554;BME280;40450;55.848;-3.572;2023-03-03T01:07:24;101014.63;;;6.76;83.43
54554;BME280;40450;55.848;-3.572;2023-03-03T01:09:55;101012.33;;;6.22;83.09
54554;BME280;40450;55.848;-3.572;2023-03-03T01:12:25;101016.96;;;3.60;88.27
54554;BME280;40450;55.848;-3.572;2023-03-03T01:14:56;101018.18;;;3.81;88.04
54554;BME280;40450;55.848;-3.572;2023-03-03T01:17:25;101018.51;;;1.62;92.92
54554;BME280;40450;55.848;-3.572;2023-03-03T01:19:56;101018.57;;;2.88;90.99
54554;BME280;40450;55.848;-3.572;2023-03-03T01:22:26;101012.95;;;5.65;86.61
54554;BME280;40450;55.848;-3.572;2023-03-03T01:24:57;101018.53;;;4.80;87.69
54554;BME280;40450;55.848;-3.572;2023-03-03T01:27:27;101019.84;;;5.89;85.02
54554;BME280;40450;55.848;-3.572;2023-03-03T01:29:58;101021.00;;;4.99;86.50
54554;BME280;40450;55.848;-3.572;2023-03-03T01:32:28;101017.62;;;4.44;86.78
54554;BME280;40450;55.848;-3.572;2023-03-03T01:34:59;101017.25;;;4.40;87.72
54554;BME280;40450;55.848;-3.572;2023-03-03T01:37:29;101019.98;;;4.65;86.47
54554;BME280;40450;55.848;-3.572;2023-03-03T01:39:59;101016.48;;;6.13;83.96
54554;BME280;40450;55.848;-3.572;2023-03-03T01:42:30;101021.75;;;5.58;84.58
54554;BME280;40450;55.848;-3.572;2023-03-03T01:47:32;101019.41;;;4.73;84.56
54554;BME280;40450;55.848;-3.572;2023-03-03T01:50:04;101018.71;;;4.00;87.79
54554;BME280;40450;55.848;-3.572;2023-03-03T01:52:34;101016.39;;;5.48;85.76
54554;BME280;40450;55.848;-3.572;2023-03-03T01:55:05;101021.76;;;2.06;91.28
54554;BME280;40450;55.848;-3.572;2023-03-03T01:57:35;101017.80;;;3.78;89.45
54554;BME280;40450;55.848;-3.572;2023-03-03T02:00:05;101015.34;;;4.48;87.16
54554;BME280;40450;55.848;-3.572;2023-03-03T02:02:34;101017.26;;;4.12;86.85
54554;BME280;40450;55.848;-3.572;2023-03-03T02:05:03;101020.73;;;2.63;89.80
54554;BME280;40450;55.848;-3.572;2023-03-03T02:07:34;101028.68;;;0.34;95.64
54554;BME280;40450;55.848;-3.572;2023-03-03T02:10:06;101021.86;;;2.35;92.48
54554;BME280;40450;55.848;-3.572;2023-03-03T02:12:38;101021.22;;;3.73;90.14
54554;BME280;40450;55.848;-3.572;2023-03-03T02:15:15;101017.38;;;3.88;87.94
54554;BME280;40450;55.848;-3.572;2023-03-03T02:17:36;101018.88;;;2.65;91.92
54554;BME280;40450;55.848;-3.572;2023-03-03T02:20:09;101018.84;;;1.37;93.33
54554;BME280;40450;55.848;-3.572;2023-03-03T02:22:42;101020.28;;;2.07;93.33
54554;BME280;40450;55.848;-3.572;2023-03-03T02:25:09;101016.90;;;4.42;87.86
54554;BME280;40450;55.848;-3.572;2023-03-03T02:27:36;101020.57;;;2.08;91.90
54554;BME280;40450;55.848;-3.572;2023-03-03T02:30:11;101020.50;;;2.36;91.33
54554;BME280;40450;55.848;-3.572;2023-03-03T02:32:36;101015.62;;;3.80;90.49
54554;BME280;40450;55.848;-3.572;2023-03-03T02:37:38;101019.09;;;1.68;94.32
54554;BME280;40450;55.848;-3.572;2023-03-03T02:40:09;101019.48;;;2.47;91.81
54554;BME280;40450;55.848;-3.572;2023-03-03T02:42:38;101016.49;;;5.35;88.47
54554;BME280;40450;55.848;-3.572;2023-03-03T02:45:09;101016.44;;;4.69;86.68
54554;BME280;40450;55.848;-3.572;2023-03-03T02:47:39;101017.30;;;3.08;90.13
54554;BME280;40450;55.848;-3.572;2023-03-03T02:50:10;101012.24;;;4.27;88.15
54554;BME280;40450;55.848;-3.572;2023-03-03T02:52:39;101007.62;;;4.65;86.20
54554;BME280;40450;55.848;-3.572;2023-03-03T02:55:10;101011.98;;;5.46;86.01
54554;BME280;40450;55.848;-3.572;2023-03-03T02:57:40;101004.69;;;7.24;83.07
54554;BME280;40450;55.848;-3.572;2023-03-03T03:00:11;101011.93;;;3.18;88.42
54554;BME280;40450;55.848;-3.572;2023-03-03T03:02:41;101011.60;;;5.68;85.66
54554;BME280;40450;55.848;-3.572;2023-03-03T03:05:11;101003.15;;;7.58;82.65
54554;BME280;40450;55.848;-3.572;2023-03-03T03:07:42;100996.01;;;8.51;82.04
54554;BME280;40450;55.848;-3.572;2023-03-03T03:10:12;101000.96;;;7.87;76.58
54554;BME280;40450;55.848;-3.572;2023-03-03T03:12:43;100998.45;;;9.17;76.91
54554;BME280;40450;55.848;-3.572;2023-03-03T03:15:13;101000.82;;;9.51;77.81
54554;BME280;40450;55.848;-3.572;2023-03-03T03:17:44;101001.85;;;8.79;75.10
54554;BME280;40450;55.848;-3.572;2023-03-03T03:20:14;101002.70;;;8.25;74.54
54554;BME280;40450;55.848;-3.572;2023-03-03T03:22:44;101007.03;;;8.53;77.17
54554;BME280;40450;55.848;-3.572;2023-03-03T03:25:15;101008.27;;;8.81;76.65
54554;BME280;40450;55.848;-3.572;2023-03-03T03:27:45;101008.62;;;9.76;75.88
54554;BME280;40450;55.848;-3.572;2023-03-03T03:30:16;101011.65;;;9.80;75.22
54554;BME280;40450;55.848;-3.572;2023-03-03T03:32:46;101014.06;;;10.08;72.05
54554;BME280;40450;55.848;-3.572;2023-03-03T03:35:16;101015.69;;;9.58;72.05
54554;BME280;40450;55.848;-3.572;2023-03-03T03:37:47;101015.41;;;10.44;73.83
54554;BME280;40450;55.848;-3.572;2023-03-03T03:40:17;101015.91;;;10.43;73.49
54554;BME280;40450;55.848;-3.572;2023-03-03T03:42:47;101016.85;;;10.59;69.11
54554;BME280;40450;55.848;-3.572;2023-03-03T03:45:18;101013.86;;;10.82;70.80
54554;BME280;40450;55.848;-3.572;2023-03-03T03:47:48;101009.69;;;10.96;70.34
54554;BME280;40450;55.848;-3.572;2023-03-03T03:50:18;101010.85;;;11.07;70.12
54554;BME280;40450;55.848;-3.572;2023-03-03T03:52:49;101009.86;;;10.82;68.07
54554;BME280;40450;55.848;-3.572;2023-03-03T03:55:19;101017.60;;;10.05;69.73
54554;BME280;40450;55.848;-3.572;2023-03-03T03:57:49;101015.35;;;10.49;68.42
54554;BME280;40450;55.848;-3.572;2023-03-03T04:00:20;101015.21;;;9.94;70.83
54554;BME280;40450;55.848;-3.572;2023-03-03T04:02:51;101016.89;;;9.87;70.08
54554;BME280;40450;55.848;-3.572;2023-03-03T04:05:21;101013.93;;;10.09;70.58
54554;BME280;40450;55.848;-3.572;2023-03-03T04:07:51;101010.67;;;10.42;69.19
54554;BME280;40450;55.848;-3.572;2023-03-03T04:10:21;101009.48;;;10.64;68.28
54554;BME280;40450;55.848;-3.572;2023-03-03T04:12:51;101010.84;;;9.44;67.91
54554;BME280;40450;55.848;-3.572;2023-03-03T04:15:22;101009.07;;;9.75;68.52
54554;BME280;40450;55.848;-3.572;2023-03-03T04:17:52;101005.37;;;8.60;70.57
54554;BME280;40450;55.848;-3.572;2023-03-03T04:20:23;101005.79;;;8.78;70.56
54554;BME280;40450;55.848;-3.572;2023-03-03T04:22:53;101008.11;;;8.86;69.94
54554;BME280;40450;55.848;-3.572;2023-03-03T04:25:24;101007.07;;;9.32;69.56
54554;BME280;40450;55.848;-3.572;2023-03-03T04:27:54;101004.05;;;9.17;69.37
54554;BME280;40450;55.848;-3.572;2023-03-03T04:30:24;101000.03;;;9.33;69.05
54554;BME280;40450;55.848;-3.572;2023-03-03T04:32:55;101012.16;;;5.78;76.31
54554;BME280;40450;55.848;-3.572;2023-03-03T04:35:25;101012.91;;;5.10;78.75
54554;BME280;40450;55.848;-3.572;2023-03-03T04:37:55;101009.23;;;3.96;81.96
54554;BME280;40450;55.848;-3.572;2023-03-03T04:40:26;101007.22;;;6.00;77.11
54554;BME280;40450;55.848;-3.572;2023-03-03T04:42:56;101012.56;;;4.84;79.91
54554;BME280;40450;55.848;-3.572;2023-03-03T04:45:27;101011.14;;;5.47;78.22
54554;BME280;40450;55.848;-3.572;2023-03-03T04:47:57;101010.62;;;5.14;79.92
54554;BME280;40450;55.848;-3.572;2023-03-03T04:50:28;101011.56;;;5.50;79.37
54554;BME280;40450;55.848;-3.572;2023-03-03T04:52:58;101008.75;;;4.79;80.64
54554;BME280;40450;55.848;-3.572;2023-03-03T04:55:28;101002.18;;;6.07;77.58
54554;BME280;40450;55.848;-3.572;2023-03-03T04:57:58;101007.07;;;3.48;83.98
54554;BME280;40450;55.848;-3.572;2023-03-03T05:00:29;100999.68;;;5.92;79.75
54554;BME280;40450;55.848;-3.572;2023-03-03T05:02:59;101005.01;;;5.42;79.84
54554;BME280;40450;55.848;-3.572;2023-03-03T05:05:29;101006.00;;;3.48;83.62
54554;BME280;40450;55.848;-3.572;2023-03-03T05:07:59;101004.07;;;5.77;79.09
54554;BME280;40450;55.848;-3.572;2023-03-03T05:10:30;101010.95;;;5.18;79.72
54554;BME280;40450;55.848;-3.572;2023-03-03T05:13:00;101010.49;;;4.18;82.36
54554;BME280;40450;55.848;-3.572;2023-03-03T05:15:31;101012.39;;;3.94;82.70
54554;BME280;40450;55.848;-3.572;2023-03-03T05:18:01;101011.78;;;4.52;81.56
54554;BME280;40450;55.848;-3.572;2023-03-03T05:20:31;101009.22;;;4.11;82.21
54554;BME280;40450;55.848;-3.572;2023-03-03T05:23:02;101009.55;;;4.42;82.84
54554;BME280;40450;55.848;-3.572;2023-03-03T05:25:32;101014.38;;;4.92;81.73
54554;BME280;40450;55.848;-3.572;2023-03-03T05:28:03;101019.13;;;4.14;82.57
54554;BME280;40450;55.848;-3.572;2023-03-03T05:30:33;101022.05;;;5.42;79.71
54554;BME280;40450;55.848;-3.572;2023-03-03T05:33:04;101020.37;;;4.08;81.86
54554;BME280;40450;55.848;-3.572;2023-03-03T05:35:34;101020.07;;;5.39;80.01
54554;BME280;40450;55.848;-3.572;2023-03-03T05:38:04;101023.32;;;4.16;82.15
54554;BME280;40450;55.848;-3.572;2023-03-03T05:40:34;101025.12;;;5.63;79.57
54554;BME280;40450;55.848;-3.572;2023-03-03T05:43:05;101027.20;;;5.50;79.28
54554;BME280;40450;55.848;-3.572;2023-03-03T05:45:35;101022.82;;;6.25;78.31
54554;BME280;40450;55.848;-3.572;2023-03-03T05:48:05;101023.47;;;6.69;78.60
54554;BME280;40450;55.848;-3.572;2023-03-03T05:50:36;101019.87;;;6.36;77.30
54554;BME280;40450;55.848;-3.572;2023-03-03T05:53:06;101030.62;;;5.00;80.51
54554;BME280;40450;55.848;-3.572;2023-03-03T05:55:36;101029.86;;;5.65;77.71
54554;BME280;40450;55.848;-3.572;2023-03-03T05:58:07;101025.28;;;5.79;78.05
54554;BME280;40450;55.848;-3.572;2023-03-03T06:00:37;101024.70;;;4.64;80.39
54554;BME280;40450;55.848;-3.572;2023-03-03T06:03:08;101020.02;;;4.43;80.07
54554;BME280;40450;55.848;-3.572;2023-03-03T06:05:38;101021.73;;;5.12;78.57
54554;BME280;40450;55.848;-3.572;2023-03-03T06:08:08;101025.98;;;5.47;77.70
54554;BME280;40450;55.848;-3.572;2023-03-03T06:10:39;101018.71;;;7.37;76.61
54554;BME280;40450;55.848;-3.572;2023-03-03T06:13:09;101021.24;;;7.01;75.24
54554;BME280;40450;55.848;-3.572;2023-03-03T06:15:39;101018.81;;;8.48;74.15
54554;BME280;40450;55.848;-3.572;2023-03-03T06:18:10;101019.68;;;8.02;73.15
54554;BME280;40450;55.848;-3.572;2023-03-03T06:20:40;101021.35;;;6.31;74.15
54554;BME280;40450;55.848;-3.572;2023-03-03T06:23:11;101016.98;;;8.52;73.07
54554;BME280;40450;55.848;-3.572;2023-03-03T06:25:41;101019.12;;;8.34;69.59
54554;BME280;40450;55.848;-3.572;2023-03-03T06:28:12;101019.04;;;8.67;71.25
54554;BME280;40450;55.848;-3.572;2023-03-03T06:30:42;101023.95;;;7.33;70.54
54554;BME280;40450;55.848;-3.572;2023-03-03T06:33:12;101026.25;;;6.28;74.86
54554;BME280;40450;55.848;-3.572;2023-03-03T06:35:43;101026.13;;;7.37;73.30
54554;BME280;40450;55.848;-3.572;2023-03-03T06:38:13;101026.70;;;8.08;71.45
54554;BME280;40450;55.848;-3.572;2023-03-03T06:40:44;101021.51;;;9.31;70.26
54554;BME280;40450;55.848;-3.572;2023-03-03T06:43:14;101025.36;;;9.75;68.12
54554;BME280;40450;55.848;-3.572;2023-03-03T06:45:45;101024.89;;;9.19;68.67
54554;BME280;40450;55.848;-3.572;2023-03-03T06:48:15;101026.33;;;9.43;69.06
54554;BME280;40450;55.848;-3.572;2023-03-03T06:50:45;101029.26;;;7.40;71.37
54554;BME280;40450;55.848;-3.572;2023-03-03T06:53:17;101029.27;;;7.74;70.63
54554;BME280;40450;55.848;-3.572;2023-03-03T06:55:46;101040.94;;;5.60;74.71
54554;BME280;40450;55.848;-3.572;2023-03-03T06:58:19;101040.51;;;4.67;78.13
54554;BME280;40450;55.848;-3.572;2023-03-03T07:00:53;101045.89;;;5.55;76.60
54554;BME280;40450;55.848;-3.572;2023-03-03T07:03:20;101043.21;;;6.78;73.24
54554;BME280;40450;55.848;-3.572;2023-03-03T07:05:48;101051.73;;;5.55;76.11
54554;BME280;40450;55.848;-3.572;2023-03-03T07:08:20;101054.54;;;2.93;82.28
54554;BME280;40450;55.848;-3.572;2023-03-03T07:10:50;101053.53;;;5.98;76.88
54554;BME280;40450;55.848;-3.572;2023-03-03T07:13:21;101054.29;;;5.58;76.75
54554;BME280;40450;55.848;-3.572;2023-03-03T07:15:51;101048.47;;;7.26;74.59
54554;BME280;40450;55.848;-3.572;2023-03-03T07:18:28;101050.06;;;8.33;72.61
54554;BME280;40450;55.848;-3.572;2023-03-03T07:20:50;101047.23;;;9.01;71.76
54554;BME280;40450;55.848;-3.572;2023-03-03T07:23:24;101051.79;;;8.52;69.78
54554;BME280;40450;55.848;-3.572;2023-03-03T07:25:51;101054.99;;;8.46;70.77
54554;BME280;40450;55.848;-3.572;2023-03-03T07:28:24;101060.31;;;6.55;72.60
54554;BME280;40450;55.848;-3.572;2023-03-03T07:30:52;101057.65;;;8.49;71.31
54554;BME280;40450;55.848;-3.572;2023-03-03T07:33:26;101054.20;;;9.49;69.12
54554;BME280;40450;55.848;-3.572;2023-03-03T07:35:54;101058.01;;;9.54;68.82
54554;BME280;40450;55.848;-3.572;2023-03-03T07:38:28;101060.86;;;10.03;67.88
54554;BME280;40450;55.848;-3.572;2023-03-03T07:40:54;101062.71;;;10.18;65.86
54554;BME280;40450;55.848;-3.572;2023-03-03T07:43:34;101063.99;;;10.51;66.54
54554;BME280;40450;55.848;-3.572;2023-03-03T07:45:58;101062.29;;;10.66;64.56
54554;BME280;40450;55.848;-3.572;2023-03-03T07:48:30;101064.47;;;10.74;65.25
54554;BME280;40450;55.848;-3.572;2023-03-03T07:50:55;101067.20;;;10.88;64.85
54554;BME280;40450;55.848;-3.572;2023-03-03T07:53:28;101071.21;;;9.09;66.20
54554;BME280;40450;55.848;-3.572;2023-03-03T07:55:56;101084.15;;;6.10;72.71
54554;BME280;40450;55.848;-3.572;2023-03-03T07:58:34;101078.77;;;8.05;68.61
54554;BME280;40450;55.848;-3.572;2023-03-03T08:03:26;101089.43;;;6.02;72.21
54554;BME280;40450;55.848;-3.572;2023-03-03T08:05:57;101083.26;;;7.06;70.84
54554;BME280;40450;55.848;-3.572;2023-03-03T08:08:29;101086.54;;;7.42;69.17
54554;BME280;40450;55.848;-3.572;2023-03-03T08:10:59;101087.66;;;7.81;68.91
54554;BME280;40450;55.848;-3.572;2023-03-03T08:13:35;101091.37;;;6.78;71.27
54554;BME280;40450;55.848;-3.572;2023-03-03T08:16:01;101090.46;;;8.02;69.00
54554;BME280;40450;55.848;-3.572;2023-03-03T08:18:33;101094.77;;;7.00;69.05
54554;BME280;40450;55.848;-3.572;2023-03-03T08:21:00;101104.90;;;6.21;72.08
54554;BME280;40450;55.848;-3.572;2023-03-03T08:23:30;101099.18;;;7.34;71.67
54554;BME280;40450;55.848;-3.572;2023-03-03T08:26:00;101102.04;;;7.62;70.90
54554;BME280;40450;55.848;-3.572;2023-03-03T08:28:31;101104.16;;;7.80;69.92
54554;BME280;40450;55.848;-3.572;2023-03-03T08:31:01;101109.86;;;6.40;71.46
54554;BME280;40450;55.848;-3.572;2023-03-03T08:33:31;101112.86;;;8.36;69.29
54554;BME280;40450;55.848;-3.572;2023-03-03T08:36:02;101111.26;;;8.30;69.39
54554;BME280;40450;55.848;-3.572;2023-03-03T08:38:33;101110.97;;;8.67;67.16
54554;BME280;40450;55.848;-3.572;2023-03-03T08:41:03;101110.83;;;8.87;67.18
54554;BME280;40450;55.848;-3.572;2023-03-03T08:43:33;101111.85;;;9.07;64.79
54554;BME280;40450;55.848;-3.572;2023-03-03T08:46:04;101122.06;;;5.78;73.10
54554;BME280;40450;55.848;-3.572;2023-03-03T08:48:34;101124.20;;;5.80;72.46
54554;BME280;40450;55.848;-3.572;2023-03-03T08:51:04;101123.62;;;5.01;75.81
54554;BME280;40450;55.848;-3.572;2023-03-03T08:53:34;101122.83;;;4.71;76.04
54554;BME280;40450;55.848;-3.572;2023-03-03T08:56:05;101129.29;;;2.38;82.65
54554;BME280;40450;55.848;-3.572;2023-03-03T08:58:35;101131.56;;;5.59;75.80
54554;BME280;40450;55.848;-3.572;2023-03-03T09:01:06;101135.28;;;5.59;75.13
54554;BME280;40450;55.848;-3.572;2023-03-03T09:03:36;101138.04;;;6.44;73.86
54554;BME280;40450;55.848;-3.572;2023-03-03T09:06:07;101142.25;;;2.30;81.91
54554;BME280;40450;55.848;-3.572;2023-03-03T09:08:37;101136.44;;;4.27;77.78
54554;BME280;40450;55.848;-3.572;2023-03-03T09:11:09;101136.70;;;5.27;76.53
54554;BME280;40450;55.848;-3.572;2023-03-03T09:13:38;101141.30;;;1.96;83.68
54554;BME280;40450;55.848;-3.572;2023-03-03T09:16:12;101136.96;;;2.91;81.85
54554;BME280;40450;55.848;-3.572;2023-03-03T09:18:40;101141.30;;;3.86;78.51
54554;BME280;40450;55.848;-3.572;2023-03-03T09:21:20;101139.28;;;3.60;80.00
54554;BME280;40450;55.848;-3.572;2023-03-03T09:23:41;101136.01;;;4.03;79.51
54554;BME280;40450;55.848;-3.572;2023-03-03T09:28:41;101150.47;;;0.63;85.93
54554;BME280;40450;55.848;-3.572;2023-03-03T09:31:21;101144.62;;;2.77;82.89
54554;BME280;40450;55.848;-3.572;2023-03-03T09:33:44;101141.13;;;3.23;82.69
54554;BME280;40450;55.848;-3.572;2023-03-03T09:36:23;101138.08;;;3.42;81.24
54554;BME280;40450;55.848;-3.572;2023-03-03T09:38:44;101141.15;;;2.76;81.87
54554;BME280;40450;55.848;-3.572;2023-03-03T09:43:50;101139.75;;;3.33;82.41
54554;BME280;40450;55.848;-3.572;2023-03-03T09:46:19;101137.02;;;4.29;78.72
54554;BME280;40450;55.848;-3.572;2023-03-03T09:48:51;101142.06;;;2.58;83.41
54554;BME280;40450;55.848;-3.572;2023-03-03T09:51:23;101137.76;;;2.53;84.18
54554;BME280;40450;55.848;-3.572;2023-03-03T09:53:57;101146.15;;;1.26;87.31
54554;BME280;40450;55.848;-3.572;2023-03-03T09:56:20;101138.32;;;2.13;85.28
54554;BME280;40450;55.848;-3.572;2023-03-03T10:01:28;101145.55;;;2.37;81.87
54554;BME280;40450;55.848;-3.572;2023-03-03T10:04:00;101147.43;;;1.50;83.62
54554;BME280;40450;55.848;-3.572;2023-03-03T10:06:23;101146.78;;;2.69;81.97
54554;BME280;40450;55.848;-3.572;2023-03-03T10:09:00;101149.14;;;0.29;87.28
54554;BME280;40450;55.848;-3.572;2023-03-03T10:11:22;101151.09;;;1.84;84.31
54554;BME280;40450;55.848;-3.572;2023-03-03T10:14:00;101152.02;;;-0.55;89.76
54554;BME280;40450;55.848;-3.572;2023-03-03T10:16:31;101151.26;;;2.08;84.32
54554;BME280;40450;55.848;-3.572;2023-03-03T10:18:53;101158.39;;;0.75;85.98
54554;BME280;40450;55.848;-3.572;2023-03-03T10:21:24;101150.75;;;2.06;83.30
54554;BME280;40450;55.848;-3.572;2023-03-03T10:23:53;101152.54;;;3.45;83.00
54554;BME280;40450;55.848;-3.572;2023-03-03T10:26:29;101152.34;;;2.91;79.42
54554;BME280;40450;55.848;-3.572;2023-03-03T10:29:00;101148.19;;;4.18;79.24
54554;BME280;40450;55.848;-3.572;2023-03-03T10:31:28;101150.39;;;2.49;79.85
54554;BME280;40450;55.848;-3.572;2023-03-03T10:33:57;101158.09;;;1.85;83.45
54554;BME280;40450;55.848;-3.572;2023-03-03T10:36:32;101152.83;;;3.24;81.27
54554;BME280;40450;55.848;-3.572;2023-03-03T10:39:01;101157.01;;;3.73;79.79
54554;BME280;40450;55.848;-3.572;2023-03-03T10:41:37;101164.76;;;0.94;84.37
54554;BME280;40450;55.848;-3.572;2023-03-03T10:44:07;101165.47;;;0.62;86.13
54554;BME280;40450;55.848;-3.572;2023-03-03T10:46:37;101166.01;;;1.17;86.41
54554;BME280;40450;55.848;-3.572;2023-03-03T10:49:04;101156.40;;;5.07;79.64
54554;BME280;40450;55.848;-3.572;2023-03-03T10:51:29;101154.53;;;6.26;71.04
54554;BME280;40450;55.848;-3.572;2023-03-03T10:54:07;101147.67;;;7.53;71.69
54554;BME280;40450;55.848;-3.572;2023-03-03T10:56:34;101147.06;;;8.32;71.90
54554;BME280;40450;55.848;-3.572;2023-03-03T10:59:06;101153.28;;;6.86;71.44
54554;BME280;40450;55.848;-3.572;2023-03-03T11:01:38;101160.43;;;4.11;78.01
54554;BME280;40450;55.848;-3.572;2023-03-03T11:06:36;101163.57;;;4.79;74.25
54554;BME280;40450;55.848;-3.572;2023-03-03T11:09:04;101164.55;;;4.50;75.17
54554;BME280;40450;55.848;-3.572;2023-03-03T11:11:39;101157.47;;;7.45;71.79
54554;BME280;40450;55.848;-3.572;2023-03-03T11:14:04;101163.55;;;6.22;71.37
54554;BME280;40450;55.848;-3.572;2023-03-03T11:16:40;101164.04;;;4.86;74.07
54554;BME280;40450;55.848;-3.572;2023-03-03T11:19:06;101161.98;;;7.85;69.12
54554;BME280;40450;55.848;-3.572;2023-03-03T11:21:34;101159.43;;;7.57;69.76
54554;BME280;40450;55.848;-3.572;2023-03-03T11:24:16;101164.12;;;8.98;67.71
54554;BME280;40450;55.848;-3.572;2023-03-03T11:26:39;101165.76;;;9.87;67.22
54554;BME280;40450;55.848;-3.572;2023-03-03T11:29:10;101169.15;;;7.42;67.91
54554;BME280;40450;55.848;-3.572;2023-03-03T11:34:11;101166.46;;;9.13;64.06
54554;BME280;40450;55.848;-3.572;2023-03-03T11:36:38;101170.03;;;7.27;67.50
54554;BME280;40450;55.848;-3.572;2023-03-03T11:39:06;101178.49;;;2.60;79.09
54554;BME280;40450;55.848;-3.572;2023-03-03T11:41:36;101180.73;;;4.34;73.79
54554;BME280;40450;55.848;-3.572;2023-03-03T11:44:12;101176.33;;;6.26;72.92
54554;BME280;40450;55.848;-3.572;2023-03-03T11:46:39;101167.74;;;8.19;69.35
54554;BME280;40450;55.848;-3.572;2023-03-03T11:49:10;101172.55;;;5.72;70.07
54554;BME280;40450;55.848;-3.572;2023-03-03T11:51:49;101179.96;;;3.38;77.06
54554;BME280;40450;55.848;-3.572;2023-03-03T11:54:14;101178.57;;;2.96;78.60
54554;BME280;40450;55.848;-3.572;2023-03-03T11:56:40;101179.87;;;3.74;78.13
54554;BME280;40450;55.848;-3.572;2023-03-03T12:01:43;101175.73;;;4.43;75.68
54554;BME280;40450;55.848;-3.572;2023-03-03T12:04:11;101178.18;;;4.16;75.01
54554;BME280;40450;55.848;-3.572;2023-03-03T12:06:46;101176.83;;;3.49;76.72
54554;BME280;40450;55.848;-3.572;2023-03-03T12:09:14;101173.37;;;4.19;75.92
54554;BME280;40450;55.848;-3.572;2023-03-03T12:11:46;101174.24;;;3.59;77.40
54554;BME280;40450;55.848;-3.572;2023-03-03T12:14:12;101171.41;;;6.69;73.22
54554;BME280;40450;55.848;-3.572;2023-03-03T12:16:44;101167.52;;;6.25;73.76
54554;BME280;40450;55.848;-3.572;2023-03-03T12:19:24;101160.51;;;8.16;68.62
54554;BME280;40450;55.848;-3.572;2023-03-03T12:21:51;101163.48;;;9.01;68.47
54554;BME280;40450;55.848;-3.572;2023-03-03T12:26:46;101160.33;;;10.92;62.70
54554;BME280;40450;55.848;-3.572;2023-03-03T12:29:21;101165.03;;;6.45;68.29
54554;BME280;40450;55.848;-3.572;2023-03-03T12:31:47;101165.77;;;5.73;70.80
54554;BME280;40450;55.848;-3.572;2023-03-03T12:34:16;101164.63;;;6.69;68.82
54554;BME280;40450;55.848;-3.572;2023-03-03T12:36:53;101152.30;;;7.84;67.92
54554;BME280;40450;55.848;-3.572;2023-03-03T12:39:21;101150.60;;;8.96;65.56
54554;BME280;40450;55.848;-3.572;2023-03-03T12:41:47;101146.70;;;10.45;63.31
54554;BME280;40450;55.848;-3.572;2023-03-03T12:44:19;101150.35;;;7.40;67.28
54554;BME280;40450;55.848;-3.572;2023-03-03T12:46:46;101153.42;;;6.30;67.41
54554;BME280;40450;55.848;-3.572;2023-03-03T12:49:14;101146.85;;;6.93;68.37
54554;BME280;40450;55.848;-3.572;2023-03-03T12:51:56;101147.72;;;6.06;69.39
54554;BME280;40450;55.848;-3.572;2023-03-03T12:56:53;101136.51;;;9.45;62.84
54554;BME280;40450;55.848;-3.572;2023-03-03T12:59:22;101133.63;;;7.14;65.02
54554;BME280;40450;55.848;-3.572;2023-03-03T13:02:00;101127.51;;;9.75;61.56
54554;BME280;40450;55.848;-3.572;2023-03-03T13:06:52;101125.00;;;9.42;59.64
54554;BME280;40450;55.848;-3.572;2023-03-03T13:09:26;101128.91;;;7.50;65.03
54554;BME280;40450;55.848;-3.572;2023-03-03T13:11:59;101139.11;;;3.42;75.65
54554;BME280;40450;55.848;-3.572;2023-03-03T13:14:26;101135.41;;;5.56;70.18
54554;BME280;40450;55.848;-3.572;2023-03-03T13:17:00;101131.16;;;7.65;65.41
54554;BME280;40450;55.848;-3.572;2023-03-03T13:19:22;101132.33;;;8.34;59.42
54554;BME280;40450;55.848;-3.572;2023-03-03T13:21:53;101134.36;;;5.88;66.95
54554;BME280;40450;55.848;-3.572;2023-03-03T13:24:24;101136.94;;;3.66;71.69
54554;BME280;40450;55.848;-3.572;2023-03-03T13:26:54;101134.52;;;6.35;66.79
54554;BME280;40450;55.848;-3.572;2023-03-03T13:29:25;101128.73;;;4.92;71.67
54554;BME280;40450;55.848;-3.572;2023-03-03T13:31:55;101128.28;;;4.79;72.22
54554;BME280;40450;55.848;-3.572;2023-03-03T13:34:36;101122.84;;;8.05;68.05
54554;BME280;40450;55.848;-3.572;2023-03-03T13:36:57;101122.92;;;5.29;70.50